sensor_id;sensor_type;location;lat;lon;timestamp;P1;durP1;ratioP1;P2;durP2;ratioP2
56860;SDS011;42744;51.094;3.490;2022-07-01T00:00:24;10.70;;;5.57;;
56860;SDS011;42744;51.094;3.490;2022-07-01T00:02:51;7.37;;;5.60;;
56860;SDS011;42744;51.094;3.490;2022-07-01T00:05:17;7.47;;;5.63;;
56860;SDS011;42744;51.094;3.490;2022-07-01T00:07:43;8.87;;;5.87;;
56860;SDS011;42744;51.094;3.490;2022-07-01T00:10:09;13.47;;;6.43;;
56860;SDS011;42744;51.094;3.490;2022-07-01T00:12:35;10.07;;;6.23;;
56860;SDS011;42744;51.094;3.490;2022-07-01T00:15:02;9.40;;;6.60;;
56860;SDS011;42744;51.094;3.490;2022-07-01T00:17:29;8.90;;;6.30;;
56860;SDS011;42744;51.094;3.490;2022-07-01T00:19:55;8.97;;;6.33;;
56860;SDS011;42744;51.094;3.490;2022-07-01T00:22:21;8.03;;;6.03;;
56860;SDS011;42744;51.094;3.490;2022-07-01T00:24:48;13.47;;;6.87;;
56860;SDS011;42744;51.094;3.490;2022-07-01T00:27:14;9.40;;;6.13;;
56860;SDS011;42744;51.094;3.490;2022-07-01T00:29:40;7.37;;;5.90;;
56860;SDS011;42744;51.094;3.490;2022-07-01T00:32:07;9.87;;;6.10;;
56860;SDS011;42744;51.094;3.490;2022-07-01T00:34:36;9.60;;;5.67;;
56860;SDS011;42744;51.094;3.490;2022-07-01T00:37:02;7.47;;;6.27;;
56860;SDS011;42744;51.094;3.490;2022-07-01T00:39:28;7.13;;;5.63;;
56860;SDS011;42744;51.094;3.490;2022-07-01T00:42:01;6.47;;;5.70;;
56860;SDS011;42744;51.094;3.490;2022-07-01T00:44:29;8.93;;;6.17;;
56860;SDS011;42744;51.094;3.490;2022-07-01T00:46:56;10.50;;;5.77;;
56860;SDS011;42744;51.094;3.490;2022-07-01T00:49:25;8.87;;;6.27;;
56860;SDS011;42744;51.094;3.490;2022-07-01T00:51:52;7.33;;;6.00;;
56860;SDS011;42744;51.094;3.490;2022-07-01T00:54:19;7.33;;;6.03;;
56860;SDS011;42744;51.094;3.490;2022-07-01T00:56:46;7.77;;;5.90;;
56860;SDS011;42744;51.094;3.490;2022-07-01T00:59:16;10.30;;;6.30;;
56860;SDS011;42744;51.094;3.490;2022-07-01T01:01:42;8.67;;;6.10;;
56860;SDS011;42744;51.094;3.490;2022-07-01T01:04:11;10.47;;;6.30;;
56860;SDS011;42744;51.094;3.490;2022-07-01T01:06:37;9.13;;;5.93;;
56860;SDS011;42744;51.094;3.490;2022-07-01T01:09:03;7.33;;;5.43;;
56860;SDS011;42744;51.094;3.490;2022-07-01T01:11:35;12.63;;;6.53;;
56860;SDS011;42744;51.094;3.490;2022-07-01T01:14:01;12.47;;;6.30;;
56860;SDS011;42744;51.094;3.490;2022-07-01T01:16:27;6.83;;;5.53;;
56860;SDS011;42744;51.094;3.490;2022-07-01T01:18:53;11.37;;;6.50;;
56860;SDS011;42744;51.094;3.490;2022-07-01T01:21:19;9.03;;;6.17;;
56860;SDS011;42744;51.094;3.490;2022-07-01T01:23:46;10.00;;;5.67;;
56860;SDS011;42744;51.094;3.490;2022-07-01T01:26:19;13.63;;;6.27;;
56860;SDS011;42744;51.094;3.490;2022-07-01T01:28:50;11.67;;;5.90;;
56860;SDS011;42744;51.094;3.490;2022-07-01T01:31:16;11.47;;;6.57;;
56860;SDS011;42744;51.094;3.490;2022-07-01T01:33:43;8.90;;;6.23;;
56860;SDS011;42744;51.094;3.490;2022-07-01T01:36:10;11.67;;;6.00;;
56860;SDS011;42744;51.094;3.490;2022-07-01T01:38:36;9.40;;;6.23;;
56860;SDS011;42744;51.094;3.490;2022-07-01T01:41:03;10.30;;;6.50;;
56860;SDS011;42744;51.094;3.490;2022-07-01T01:43:29;10.23;;;6.50;;
56860;SDS011;42744;51.094;3.490;2022-07-01T01:45:58;8.70;;;5.57;;
56860;SDS011;42744;51.094;3.490;2022-07-01T01:48:26;11.07;;;6.70;;
56860;SDS011;42744;51.094;3.490;2022-07-01T01:50:53;10.73;;;6.10;;
56860;SDS011;42744;51.094;3.490;2022-07-01T01:53:20;6.87;;;5.87;;
56860;SDS011;42744;51.094;3.490;2022-07-01T01:55:46;8.63;;;5.43;;
56860;SDS011;42744;51.094;3.490;2022-07-01T01:58:12;9.73;;;6.33;;
56860;SDS011;42744;51.094;3.490;2022-07-01T02:00:39;10.00;;;5.80;;
56860;SDS011;42744;51.094;3.490;2022-07-01T02:03:05;12.77;;;6.30;;
56860;SDS011;42744;51.094;3.490;2022-07-01T02:05:31;11.03;;;6.00;;
56860;SDS011;42744;51.094;3.490;2022-07-01T02:07:57;8.77;;;5.77;;
56860;SDS011;42744;51.094;3.490;2022-07-01T02:10:24;11.03;;;5.50;;
56860;SDS011;42744;51.094;3.490;2022-07-01T02:12:50;13.57;;;6.07;;
56860;SDS011;42744;51.094;3.490;2022-07-01T02:15:15;9.97;;;5.53;;
56860;SDS011;42744;51.094;3.490;2022-07-01T02:17:42;10.07;;;5.30;;
56860;SDS011;42744;51.094;3.490;2022-07-01T02:20:08;8.80;;;5.27;;
56860;SDS011;42744;51.094;3.490;2022-07-01T02:22:34;12.40;;;5.60;;
56860;SDS011;42744;51.094;3.490;2022-07-01T02:25:00;9.97;;;5.40;;
56860;SDS011;42744;51.094;3.490;2022-07-01T02:27:26;8.03;;;5.40;;
56860;SDS011;42744;51.094;3.490;2022-07-01T02:29:52;10.53;;;5.43;;
56860;SDS011;42744;51.094;3.490;2022-07-01T02:32:19;10.33;;;5.03;;
56860;SDS011;42744;51.094;3.490;2022-07-01T02:34:45;9.87;;;5.33;;
56860;SDS011;42744;51.094;3.490;2022-07-01T02:37:11;7.13;;;4.57;;
56860;SDS011;42744;51.094;3.490;2022-07-01T02:39:37;11.33;;;4.83;;
56860;SDS011;42744;51.094;3.490;2022-07-01T02:42:03;8.40;;;4.73;;
56860;SDS011;42744;51.094;3.490;2022-07-01T02:45:08;10.33;;;4.60;;
56860;SDS011;42744;51.094;3.490;2022-07-01T02:47:35;10.57;;;4.40;;
56860;SDS011;42744;51.094;3.490;2022-07-01T02:50:02;5.93;;;4.50;;
56860;SDS011;42744;51.094;3.490;2022-07-01T02:52:29;7.77;;;4.50;;
56860;SDS011;42744;51.094;3.490;2022-07-01T02:54:55;8.43;;;4.43;;
56860;SDS011;42744;51.094;3.490;2022-07-01T02:57:22;6.83;;;4.30;;
56860;SDS011;42744;51.094;3.490;2022-07-01T02:59:48;7.17;;;4.30;;
56860;SDS011;42744;51.094;3.490;2022-07-01T03:02:16;7.20;;;4.80;;
56860;SDS011;42744;51.094;3.490;2022-07-01T03:04:43;10.73;;;4.33;;
56860;SDS011;42744;51.094;3.490;2022-07-01T03:07:09;6.43;;;4.40;;
56860;SDS011;42744;51.094;3.490;2022-07-01T03:09:35;9.37;;;4.27;;
56860;SDS011;42744;51.094;3.490;2022-07-01T03:12:01;9.17;;;4.37;;
56860;SDS011;42744;51.094;3.490;2022-07-01T03:14:57;9.67;;;4.37;;
56860;SDS011;42744;51.094;3.490;2022-07-01T03:17:25;8.97;;;4.20;;
56860;SDS011;42744;51.094;3.490;2022-07-01T03:19:52;7.30;;;4.30;;
56860;SDS011;42744;51.094;3.490;2022-07-01T03:22:19;7.13;;;4.33;;
56860;SDS011;42744;51.094;3.490;2022-07-01T03:24:52;9.10;;;4.30;;
56860;SDS011;42744;51.094;3.490;2022-07-01T03:27:39;8.60;;;4.47;;
56860;SDS011;42744;51.094;3.490;2022-07-01T03:30:10;8.87;;;5.20;;
56860;SDS011;42744;51.094;3.490;2022-07-01T03:32:38;8.17;;;4.67;;
56860;SDS011;42744;51.094;3.490;2022-07-01T03:35:04;9.33;;;4.60;;
56860;SDS011;42744;51.094;3.490;2022-07-01T03:37:50;8.10;;;4.60;;
56860;SDS011;42744;51.094;3.490;2022-07-01T03:40:19;6.20;;;4.73;;
56860;SDS011;42744;51.094;3.490;2022-07-01T03:42:45;6.83;;;4.47;;
56860;SDS011;42744;51.094;3.490;2022-07-01T03:45:11;8.60;;;4.73;;
56860;SDS011;42744;51.094;3.490;2022-07-01T03:47:44;9.40;;;4.77;;
56860;SDS011;42744;51.094;3.490;2022-07-01T03:50:20;8.13;;;4.73;;
56860;SDS011;42744;51.094;3.490;2022-07-01T03:52:47;8.03;;;4.87;;
56860;SDS011;42744;51.094;3.490;2022-07-01T03:55:14;9.00;;;4.93;;
56860;SDS011;42744;51.094;3.490;2022-07-01T03:57:42;9.40;;;4.80;;
56860;SDS011;42744;51.094;3.490;2022-07-01T04:00:08;11.90;;;4.50;;
56860;SDS011;42744;51.094;3.490;2022-07-01T04:02:37;10.43;;;4.53;;
56860;SDS011;42744;51.094;3.490;2022-07-01T04:05:03;10.23;;;4.77;;
56860;SDS011;42744;51.094;3.490;2022-07-01T04:07:29;7.73;;;4.33;;
56860;SDS011;42744;51.094;3.490;2022-07-01T04:09:55;8.47;;;5.03;;
56860;SDS011;42744;51.094;3.490;2022-07-01T04:12:21;8.23;;;5.00;;
56860;SDS011;42744;51.094;3.490;2022-07-01T04:14:47;12.27;;;4.80;;
56860;SDS011;42744;51.094;3.490;2022-07-01T04:17:14;10.43;;;5.23;;
56860;SDS011;42744;51.094;3.490;2022-07-01T04:19:43;7.07;;;4.93;;
56860;SDS011;42744;51.094;3.490;2022-07-01T04:22:10;9.73;;;5.10;;
56860;SDS011;42744;51.094;3.490;2022-07-01T04:24:54;11.00;;;5.77;;
56860;SDS011;42744;51.094;3.490;2022-07-01T04:27:20;8.67;;;4.73;;
56860;SDS011;42744;51.094;3.490;2022-07-01T04:29:47;10.80;;;5.37;;
56860;SDS011;42744;51.094;3.490;2022-07-01T04:32:13;8.73;;;5.30;;
56860;SDS011;42744;51.094;3.490;2022-07-01T04:34:41;6.90;;;5.00;;
56860;SDS011;42744;51.094;3.490;2022-07-01T04:37:07;8.33;;;4.80;;
56860;SDS011;42744;51.094;3.490;2022-07-01T04:39:37;8.23;;;5.10;;
56860;SDS011;42744;51.094;3.490;2022-07-01T04:42:03;9.37;;;5.27;;
56860;SDS011;42744;51.094;3.490;2022-07-01T04:44:36;9.97;;;4.93;;
56860;SDS011;42744;51.094;3.490;2022-07-01T04:47:05;10.70;;;5.27;;
56860;SDS011;42744;51.094;3.490;2022-07-01T04:49:31;12.27;;;5.83;;
56860;SDS011;42744;51.094;3.490;2022-07-01T04:51:57;7.37;;;5.27;;
56860;SDS011;42744;51.094;3.490;2022-07-01T04:54:24;10.20;;;4.97;;
56860;SDS011;42744;51.094;3.490;2022-07-01T04:56:51;13.57;;;4.93;;
56860;SDS011;42744;51.094;3.490;2022-07-01T04:59:21;9.07;;;5.37;;
56860;SDS011;42744;51.094;3.490;2022-07-01T05:01:47;11.80;;;5.00;;
56860;SDS011;42744;51.094;3.490;2022-07-01T05:04:17;8.97;;;5.13;;
56860;SDS011;42744;51.094;3.490;2022-07-01T05:06:44;10.03;;;4.77;;
56860;SDS011;42744;51.094;3.490;2022-07-01T05:09:10;8.43;;;4.87;;
56860;SDS011;42744;51.094;3.490;2022-07-01T05:11:36;12.13;;;5.57;;
56860;SDS011;42744;51.094;3.490;2022-07-01T05:14:07;7.73;;;4.63;;
56860;SDS011;42744;51.094;3.490;2022-07-01T05:16:37;7.27;;;4.40;;
56860;SDS011;42744;51.094;3.490;2022-07-01T05:19:03;6.50;;;5.30;;
56860;SDS011;42744;51.094;3.490;2022-07-01T05:21:53;10.23;;;5.10;;
56860;SDS011;42744;51.094;3.490;2022-07-01T05:24:28;7.93;;;5.27;;
56860;SDS011;42744;51.094;3.490;2022-07-01T05:26:56;10.57;;;4.67;;
56860;SDS011;42744;51.094;3.490;2022-07-01T05:33:06;9.20;;;4.17;;
56860;SDS011;42744;51.094;3.490;2022-07-01T05:35:33;10.30;;;4.47;;
56860;SDS011;42744;51.094;3.490;2022-07-01T05:38:00;15.17;;;4.70;;
56860;SDS011;42744;51.094;3.490;2022-07-01T05:40:26;10.47;;;4.33;;
56860;SDS011;42744;51.094;3.490;2022-07-01T05:42:52;7.70;;;4.00;;
56860;SDS011;42744;51.094;3.490;2022-07-01T05:45:23;12.07;;;4.47;;
56860;SDS011;42744;51.094;3.490;2022-07-01T05:48:03;9.80;;;4.50;;
56860;SDS011;42744;51.094;3.490;2022-07-01T05:50:29;8.77;;;4.73;;
56860;SDS011;42744;51.094;3.490;2022-07-01T05:52:56;8.60;;;4.40;;
56860;SDS011;42744;51.094;3.490;2022-07-01T05:55:24;12.00;;;4.60;;
56860;SDS011;42744;51.094;3.490;2022-07-01T05:57:53;8.33;;;4.40;;
56860;SDS011;42744;51.094;3.490;2022-07-01T06:00:23;11.23;;;4.50;;
56860;SDS011;42744;51.094;3.490;2022-07-01T06:02:52;11.23;;;5.00;;
56860;SDS011;42744;51.094;3.490;2022-07-01T06:05:18;8.30;;;4.30;;
56860;SDS011;42744;51.094;3.490;2022-07-01T06:07:44;10.00;;;4.20;;
56860;SDS011;42744;51.094;3.490;2022-07-01T06:10:11;6.87;;;4.03;;
56860;SDS011;42744;51.094;3.490;2022-07-01T06:12:38;6.13;;;3.50;;
56860;SDS011;42744;51.094;3.490;2022-07-01T06:15:06;11.40;;;3.73;;
56860;SDS011;42744;51.094;3.490;2022-07-01T06:17:34;8.63;;;3.70;;
56860;SDS011;42744;51.094;3.490;2022-07-01T06:20:00;10.83;;;4.17;;
56860;SDS011;42744;51.094;3.490;2022-07-01T06:22:26;9.93;;;3.50;;
56860;SDS011;42744;51.094;3.490;2022-07-01T06:24:52;6.30;;;3.07;;
56860;SDS011;42744;51.094;3.490;2022-07-01T06:27:18;10.97;;;3.67;;
56860;SDS011;42744;51.094;3.490;2022-07-01T06:29:46;8.07;;;3.87;;
56860;SDS011;42744;51.094;3.490;2022-07-01T06:32:12;8.90;;;3.10;;
56860;SDS011;42744;51.094;3.490;2022-07-01T06:34:38;14.87;;;3.47;;
56860;SDS011;42744;51.094;3.490;2022-07-01T06:37:05;5.73;;;2.73;;
56860;SDS011;42744;51.094;3.490;2022-07-01T06:39:31;7.07;;;3.27;;
56860;SDS011;42744;51.094;3.490;2022-07-01T06:41:57;13.40;;;3.17;;
56860;SDS011;42744;51.094;3.490;2022-07-01T06:44:23;10.87;;;2.80;;
56860;SDS011;42744;51.094;3.490;2022-07-01T06:46:49;12.30;;;2.90;;
56860;SDS011;42744;51.094;3.490;2022-07-01T06:49:15;7.83;;;2.37;;
56860;SDS011;42744;51.094;3.490;2022-07-01T06:51:44;9.87;;;2.47;;
56860;SDS011;42744;51.094;3.490;2022-07-01T06:54:11;6.33;;;2.67;;
56860;SDS011;42744;51.094;3.490;2022-07-01T06:56:37;21.13;;;3.03;;
56860;SDS011;42744;51.094;3.490;2022-07-01T06:59:03;11.30;;;2.70;;
56860;SDS011;42744;51.094;3.490;2022-07-01T07:01:29;4.77;;;2.67;;
56860;SDS011;42744;51.094;3.490;2022-07-01T07:03:55;6.73;;;2.83;;
56860;SDS011;42744;51.094;3.490;2022-07-01T07:06:21;7.00;;;2.50;;
56860;SDS011;42744;51.094;3.490;2022-07-01T07:08:48;5.93;;;2.20;;
56860;SDS011;42744;51.094;3.490;2022-07-01T07:11:14;5.57;;;2.13;;
56860;SDS011;42744;51.094;3.490;2022-07-01T07:13:40;6.57;;;2.10;;
56860;SDS011;42744;51.094;3.490;2022-07-01T07:16:07;8.57;;;2.43;;
56860;SDS011;42744;51.094;3.490;2022-07-01T07:18:33;7.10;;;2.57;;
56860;SDS011;42744;51.094;3.490;2022-07-01T07:20:59;6.70;;;2.40;;
56860;SDS011;42744;51.094;3.490;2022-07-01T07:23:26;5.70;;;2.37;;
56860;SDS011;42744;51.094;3.490;2022-07-01T07:25:52;10.90;;;2.07;;
56860;SDS011;42744;51.094;3.490;2022-07-01T07:28:18;5.97;;;2.20;;
56860;SDS011;42744;51.094;3.490;2022-07-01T07:30:46;3.60;;;1.90;;
56860;SDS011;42744;51.094;3.490;2022-07-01T07:33:12;11.90;;;2.10;;
56860;SDS011;42744;51.094;3.490;2022-07-01T07:35:38;8.63;;;1.90;;
56860;SDS011;42744;51.094;3.490;2022-07-01T07:38:07;6.37;;;1.73;;
56860;SDS011;42744;51.094;3.490;2022-07-01T07:40:34;4.33;;;1.50;;
56860;SDS011;42744;51.094;3.490;2022-07-01T07:43:00;4.87;;;1.60;;
56860;SDS011;42744;51.094;3.490;2022-07-01T07:45:29;3.23;;;1.20;;
56860;SDS011;42744;51.094;3.490;2022-07-01T07:47:55;7.10;;;1.13;;
56860;SDS011;42744;51.094;3.490;2022-07-01T07:50:21;5.37;;;1.20;;
56860;SDS011;42744;51.094;3.490;2022-07-01T07:52:48;5.37;;;1.10;;
56860;SDS011;42744;51.094;3.490;2022-07-01T07:55:14;5.60;;;1.37;;
56860;SDS011;42744;51.094;3.490;2022-07-01T07:57:40;6.37;;;1.27;;
56860;SDS011;42744;51.094;3.490;2022-07-01T08:00:08;5.83;;;1.30;;
56860;SDS011;42744;51.094;3.490;2022-07-01T08:02:36;4.63;;;1.10;;
56860;SDS011;42744;51.094;3.490;2022-07-01T08:05:03;4.20;;;1.00;;
56860;SDS011;42744;51.094;3.490;2022-07-01T08:07:34;3.17;;;1.13;;
56860;SDS011;42744;51.094;3.490;2022-07-01T08:10:05;6.73;;;1.23;;
56860;SDS011;42744;51.094;3.490;2022-07-01T08:12:33;2.70;;;1.10;;
56860;SDS011;42744;51.094;3.490;2022-07-01T08:14:59;6.87;;;1.13;;
56860;SDS011;42744;51.094;3.490;2022-07-01T08:17:26;3.57;;;1.10;;
56860;SDS011;42744;51.094;3.490;2022-07-01T08:19:52;3.60;;;0.90;;
56860;SDS011;42744;51.094;3.490;2022-07-01T08:22:18;3.00;;;0.90;;
56860;SDS011;42744;51.094;3.490;2022-07-01T08:24:44;5.47;;;0.90;;
56860;SDS011;42744;51.094;3.490;2022-07-01T08:27:10;4.73;;;0.80;;
56860;SDS011;42744;51.094;3.490;2022-07-01T08:29:38;4.00;;;1.63;;
56860;SDS011;42744;51.094;3.490;2022-07-01T08:32:05;3.87;;;1.30;;
56860;SDS011;42744;51.094;3.490;2022-07-01T08:34:31;1.90;;;0.60;;
56860;SDS011;42744;51.094;3.490;2022-07-01T08:36:59;4.80;;;1.67;;
56860;SDS011;42744;51.094;3.490;2022-07-01T08:39:25;5.07;;;1.10;;
56860;SDS011;42744;51.094;3.490;2022-07-01T08:41:51;4.73;;;1.20;;
56860;SDS011;42744;51.094;3.490;2022-07-01T08:44:17;5.77;;;0.97;;
56860;SDS011;42744;51.094;3.490;2022-07-01T08:46:44;5.43;;;1.00;;
56860;SDS011;42744;51.094;3.490;2022-07-01T08:49:11;5.93;;;1.20;;
56860;SDS011;42744;51.094;3.490;2022-07-01T08:51:38;4.13;;;0.77;;
56860;SDS011;42744;51.094;3.490;2022-07-01T08:54:04;3.00;;;0.83;;
56860;SDS011;42744;51.094;3.490;2022-07-01T08:56:31;4.17;;;1.23;;
56860;SDS011;42744;51.094;3.490;2022-07-01T08:59:09;4.77;;;0.70;;
56860;SDS011;42744;51.094;3.490;2022-07-01T09:01:38;2.63;;;0.80;;
56860;SDS011;42744;51.094;3.490;2022-07-01T09:04:17;3.27;;;0.80;;
56860;SDS011;42744;51.094;3.490;2022-07-01T09:06:45;3.77;;;0.80;;
56860;SDS011;42744;51.094;3.490;2022-07-01T09:09:17;4.07;;;1.07;;
56860;SDS011;42744;51.094;3.490;2022-07-01T09:11:46;2.50;;;0.70;;
56860;SDS011;42744;51.094;3.490;2022-07-01T09:14:19;5.53;;;0.90;;
56860;SDS011;42744;51.094;3.490;2022-07-01T09:16:47;4.57;;;1.63;;
56860;SDS011;42744;51.094;3.490;2022-07-01T09:19:19;3.93;;;0.80;;
56860;SDS011;42744;51.094;3.490;2022-07-01T09:29:35;2.03;;;0.87;;
56860;SDS011;42744;51.094;3.490;2022-07-01T09:32:04;4.70;;;1.50;;
56860;SDS011;42744;51.094;3.490;2022-07-01T09:34:36;6.03;;;0.97;;
56860;SDS011;42744;51.094;3.490;2022-07-01T09:37:10;1.90;;;0.70;;
56860;SDS011;42744;51.094;3.490;2022-07-01T09:39:58;4.40;;;1.40;;
56860;SDS011;42744;51.094;3.490;2022-07-01T09:42:25;3.07;;;1.03;;
56860;SDS011;42744;51.094;3.490;2022-07-01T09:47:21;3.87;;;0.60;;
56860;SDS011;42744;51.094;3.490;2022-07-01T09:49:51;1.03;;;0.73;;
56860;SDS011;42744;51.094;3.490;2022-07-01T09:52:18;6.13;;;0.87;;
56860;SDS011;42744;51.094;3.490;2022-07-01T09:54:45;3.50;;;0.87;;
56860;SDS011;42744;51.094;3.490;2022-07-01T09:57:15;2.73;;;0.80;;
56860;SDS011;42744;51.094;3.490;2022-07-01T09:59:42;2.27;;;0.67;;
56860;SDS011;42744;51.094;3.490;2022-07-01T10:02:08;5.43;;;0.70;;
56860;SDS011;42744;51.094;3.490;2022-07-01T10:04:36;5.23;;;0.97;;
56860;SDS011;42744;51.094;3.490;2022-07-01T10:09:59;7.83;;;0.80;;
56860;SDS011;42744;51.094;3.490;2022-07-01T10:12:40;9.63;;;1.17;;
56860;SDS011;42744;51.094;3.490;2022-07-01T10:15:16;2.27;;;0.90;;
56860;SDS011;42744;51.094;3.490;2022-07-01T10:17:44;4.73;;;0.67;;
56860;SDS011;42744;51.094;3.490;2022-07-01T10:20:16;2.30;;;0.87;;
56860;SDS011;42744;51.094;3.490;2022-07-01T10:23:02;2.43;;;0.63;;
56860;SDS011;42744;51.094;3.490;2022-07-01T10:25:38;4.60;;;0.70;;
56860;SDS011;42744;51.094;3.490;2022-07-01T10:28:21;2.43;;;0.60;;
56860;SDS011;42744;51.094;3.490;2022-07-01T10:33:55;2.73;;;0.73;;
56860;SDS011;42744;51.094;3.490;2022-07-01T10:41:36;4.93;;;0.77;;
56860;SDS011;42744;51.094;3.490;2022-07-01T10:44:17;2.57;;;0.80;;
56860;SDS011;42744;51.094;3.490;2022-07-01T10:46:44;3.17;;;0.73;;
56860;SDS011;42744;51.094;3.490;2022-07-01T10:52:07;3.30;;;0.80;;
56860;SDS011;42744;51.094;3.490;2022-07-01T10:59:44;1.40;;;0.40;;
56860;SDS011;42744;51.094;3.490;2022-07-01T11:02:14;2.97;;;0.73;;
56860;SDS011;42744;51.094;3.490;2022-07-01T11:04:49;1.20;;;0.40;;
56860;SDS011;42744;51.094;3.490;2022-07-01T11:07:17;2.45;;;0.70;;
56860;SDS011;42744;51.094;3.490;2022-07-01T11:09:43;2.45;;;0.70;;
56860;SDS011;42744;51.094;3.490;2022-07-01T11:12:09;4.45;;;0.80;;
56860;SDS011;42744;51.094;3.490;2022-07-01T11:14:36;3.35;;;0.70;;
56860;SDS011;42744;51.094;3.490;2022-07-01T11:17:03;2.10;;;0.57;;
56860;SDS011;42744;51.094;3.490;2022-07-01T11:19:30;3.78;;;0.70;;
56860;SDS011;42744;51.094;3.490;2022-07-01T11:21:56;3.50;;;0.93;;
56860;SDS011;42744;51.094;3.490;2022-07-01T11:24:22;4.40;;;0.90;;
56860;SDS011;42744;51.094;3.490;2022-07-01T11:26:51;8.77;;;0.90;;
56860;SDS011;42744;51.094;3.490;2022-07-01T11:29:40;3.57;;;0.80;;
56860;SDS011;42744;51.094;3.490;2022-07-01T11:32:06;2.87;;;0.93;;
56860;SDS011;42744;51.094;3.490;2022-07-01T11:34:33;3.43;;;0.90;;
56860;SDS011;42744;51.094;3.490;2022-07-01T11:37:08;3.77;;;0.93;;
56860;SDS011;42744;51.094;3.490;2022-07-01T11:40:10;3.73;;;1.27;;
56860;SDS011;42744;51.094;3.490;2022-07-01T11:42:37;1.87;;;0.90;;
56860;SDS011;42744;51.094;3.490;2022-07-01T11:45:05;5.50;;;1.00;;
56860;SDS011;42744;51.094;3.490;2022-07-01T11:47:31;3.17;;;1.20;;
56860;SDS011;42744;51.094;3.490;2022-07-01T11:49:58;3.63;;;1.20;;
56860;SDS011;42744;51.094;3.490;2022-07-01T11:52:26;2.43;;;1.07;;
56860;SDS011;42744;51.094;3.490;2022-07-01T11:54:54;4.03;;;1.50;;
56860;SDS011;42744;51.094;3.490;2022-07-01T11:57:23;4.73;;;1.33;;
56860;SDS011;42744;51.094;3.490;2022-07-01T11:59:52;5.30;;;1.53;;
56860;SDS011;42744;51.094;3.490;2022-07-01T12:02:21;7.30;;;1.50;;
56860;SDS011;42744;51.094;3.490;2022-07-01T12:04:48;3.40;;;1.37;;
56860;SDS011;42744;51.094;3.490;2022-07-01T12:07:16;5.60;;;1.50;;
56860;SDS011;42744;51.094;3.490;2022-07-01T12:09:47;7.23;;;1.70;;
56860;SDS011;42744;51.094;3.490;2022-07-01T12:12:17;4.93;;;1.47;;
56860;SDS011;42744;51.094;3.490;2022-07-01T12:14:55;4.17;;;1.50;;
56860;SDS011;42744;51.094;3.490;2022-07-01T12:17:22;6.87;;;1.83;;
56860;SDS011;42744;51.094;3.490;2022-07-01T12:19:50;4.47;;;1.40;;
56860;SDS011;42744;51.094;3.490;2022-07-01T12:22:19;3.13;;;0.90;;
56860;SDS011;42744;51.094;3.490;2022-07-01T12:24:52;1.83;;;0.90;;
56860;SDS011;42744;51.094;3.490;2022-07-01T12:27:29;2.77;;;0.80;;
56860;SDS011;42744;51.094;3.490;2022-07-01T12:29:59;4.63;;;1.00;;
56860;SDS011;42744;51.094;3.490;2022-07-01T12:32:26;2.27;;;0.80;;
56860;SDS011;42744;51.094;3.490;2022-07-01T12:35:01;3.13;;;0.80;;
56860;SDS011;42744;51.094;3.490;2022-07-01T12:38:16;2.70;;;0.90;;
56860;SDS011;42744;51.094;3.490;2022-07-01T12:40:45;2.60;;;0.70;;
56860;SDS011;42744;51.094;3.490;2022-07-01T12:43:31;2.90;;;0.93;;
56860;SDS011;42744;51.094;3.490;2022-07-01T12:46:03;2.97;;;1.30;;
56860;SDS011;42744;51.094;3.490;2022-07-01T12:48:29;2.17;;;0.90;;
56860;SDS011;42744;51.094;3.490;2022-07-01T12:51:14;3.27;;;1.00;;
56860;SDS011;42744;51.094;3.490;2022-07-01T12:53:41;2.27;;;0.93;;
56860;SDS011;42744;51.094;3.490;2022-07-01T12:56:07;3.97;;;0.93;;
56860;SDS011;42744;51.094;3.490;2022-07-01T12:58:33;2.50;;;0.83;;
56860;SDS011;42744;51.094;3.490;2022-07-01T13:00:59;4.57;;;1.20;;
56860;SDS011;42744;51.094;3.490;2022-07-01T13:03:25;3.50;;;0.97;;
56860;SDS011;42744;51.094;3.490;2022-07-01T13:05:54;3.53;;;1.43;;
56860;SDS011;42744;51.094;3.490;2022-07-01T13:08:23;2.60;;;0.70;;
56860;SDS011;42744;51.094;3.490;2022-07-01T13:10:49;3.43;;;0.83;;
56860;SDS011;42744;51.094;3.490;2022-07-01T13:13:15;5.62;;;1.00;;
56860;SDS011;42744;51.094;3.490;2022-07-01T13:15:44;5.12;;;1.23;;
56860;SDS011;42744;51.094;3.490;2022-07-01T13:18:11;3.10;;;0.85;;
56860;SDS011;42744;51.094;3.490;2022-07-01T13:20:42;7.00;;;1.30;;
56860;SDS011;42744;51.094;3.490;2022-07-01T13:23:09;5.43;;;1.50;;
56860;SDS011;42744;51.094;3.490;2022-07-01T13:25:35;3.07;;;0.97;;
56860;SDS011;42744;51.094;3.490;2022-07-01T13:28:02;3.30;;;1.07;;
56860;SDS011;42744;51.094;3.490;2022-07-01T13:30:29;4.23;;;1.13;;
56860;SDS011;42744;51.094;3.490;2022-07-01T13:32:55;1.93;;;0.87;;
56860;SDS011;42744;51.094;3.490;2022-07-01T13:35:22;2.70;;;0.90;;
56860;SDS011;42744;51.094;3.490;2022-07-01T13:37:49;3.73;;;0.93;;
56860;SDS011;42744;51.094;3.490;2022-07-01T13:40:16;3.00;;;0.93;;
56860;SDS011;42744;51.094;3.490;2022-07-01T13:42:42;5.57;;;1.20;;
56860;SDS011;42744;51.094;3.490;2022-07-01T13:45:09;3.90;;;1.00;;
56860;SDS011;42744;51.094;3.490;2022-07-01T13:47:35;3.80;;;1.10;;
56860;SDS011;42744;51.094;3.490;2022-07-01T13:50:03;3.43;;;0.90;;
56860;SDS011;42744;51.094;3.490;2022-07-01T13:52:29;3.20;;;0.80;;
56860;SDS011;42744;51.094;3.490;2022-07-01T13:54:58;3.42;;;1.02;;
56860;SDS011;42744;51.094;3.490;2022-07-01T13:57:24;2.43;;;0.80;;
56860;SDS011;42744;51.094;3.490;2022-07-01T13:59:51;4.87;;;0.90;;
56860;SDS011;42744;51.094;3.490;2022-07-01T14:02:18;7.28;;;1.00;;
56860;SDS011;42744;51.094;3.490;2022-07-01T14:04:47;7.37;;;1.10;;
56860;SDS011;42744;51.094;3.490;2022-07-01T14:07:13;4.57;;;0.90;;
56860;SDS011;42744;51.094;3.490;2022-07-01T14:09:39;5.37;;;1.08;;
56860;SDS011;42744;51.094;3.490;2022-07-01T14:12:06;6.75;;;0.85;;
56860;SDS011;42744;51.094;3.490;2022-07-01T14:14:32;5.22;;;1.25;;
56860;SDS011;42744;51.094;3.490;2022-07-01T14:16:58;2.40;;;0.80;;
56860;SDS011;42744;51.094;3.490;2022-07-01T14:19:25;4.32;;;0.75;;
56860;SDS011;42744;51.094;3.490;2022-07-01T14:21:52;4.20;;;1.05;;
56860;SDS011;42744;51.094;3.490;2022-07-01T14:24:20;6.93;;;1.42;;
56860;SDS011;42744;51.094;3.490;2022-07-01T14:26:46;3.83;;;0.90;;
56860;SDS011;42744;51.094;3.490;2022-07-01T14:29:12;2.50;;;0.70;;
56860;SDS011;42744;51.094;3.490;2022-07-01T14:31:38;4.37;;;1.08;;
56860;SDS011;42744;51.094;3.490;2022-07-01T14:34:04;3.47;;;0.90;;
56860;SDS011;42744;51.094;3.490;2022-07-01T14:36:30;3.17;;;0.80;;
56860;SDS011;42744;51.094;3.490;2022-07-01T14:38:56;1.95;;;0.65;;
56860;SDS011;42744;51.094;3.490;2022-07-01T14:41:22;2.58;;;0.90;;
56860;SDS011;42744;51.094;3.490;2022-07-01T14:43:48;4.87;;;0.90;;
56860;SDS011;42744;51.094;3.490;2022-07-01T14:46:15;1.67;;;0.70;;
56860;SDS011;42744;51.094;3.490;2022-07-01T14:48:41;6.25;;;1.00;;
56860;SDS011;42744;51.094;3.490;2022-07-01T14:51:07;2.30;;;0.90;;
56860;SDS011;42744;51.094;3.490;2022-07-01T14:53:33;5.60;;;0.93;;
56860;SDS011;42744;51.094;3.490;2022-07-01T14:56:00;1.92;;;0.52;;
56860;SDS011;42744;51.094;3.490;2022-07-01T14:58:26;2.87;;;0.68;;
56860;SDS011;42744;51.094;3.490;2022-07-01T15:00:52;5.40;;;1.08;;
56860;SDS011;42744;51.094;3.490;2022-07-01T15:03:18;4.55;;;0.68;;
56860;SDS011;42744;51.094;3.490;2022-07-01T15:05:45;4.22;;;0.65;;
56860;SDS011;42744;51.094;3.490;2022-07-01T15:08:11;3.17;;;0.62;;
56860;SDS011;42744;51.094;3.490;2022-07-01T15:10:39;6.43;;;0.95;;
56860;SDS011;42744;51.094;3.490;2022-07-01T15:13:06;1.87;;;0.52;;
56860;SDS011;42744;51.094;3.490;2022-07-01T15:15:32;4.20;;;0.60;;
56860;SDS011;42744;51.094;3.490;2022-07-01T15:17:58;2.80;;;0.65;;
56860;SDS011;42744;51.094;3.490;2022-07-01T15:20:24;4.78;;;0.77;;
56860;SDS011;42744;51.094;3.490;2022-07-01T15:22:50;2.97;;;0.62;;
56860;SDS011;42744;51.094;3.490;2022-07-01T15:25:19;2.67;;;0.50;;